createdAt,value
2023-03-26T00:01:41.830Z,5.90
2023-03-26T00:04:10.830Z,6.10
2023-03-26T00:06:40.640Z,4.30
2023-03-26T00:09:13.621Z,4.90
2023-03-26T00:11:43.750Z,5.80
2023-03-26T00:14:14.264Z,5.20
2023-03-26T00:16:42.974Z,4.00
2023-03-26T00:19:12.875Z,5.00
2023-03-26T00:21:41.705Z,4.70
2023-03-26T00:24:15.488Z,5.00
2023-03-26T00:26:44.777Z,5.10
2023-03-26T00:29:15.875Z,4.70
2023-03-26T00:31:46.604Z,5.50
2023-03-26T00:34:18.812Z,5.40
2023-03-26T00:36:47.646Z,4.10
2023-03-26T00:39:18.097Z,5.10
2023-03-26T00:41:46.524Z,4.90
2023-03-26T00:44:14.907Z,4.60
2023-03-26T00:46:43.010Z,4.90
2023-03-26T00:49:14.970Z,4.20
2023-03-26T00:51:43.830Z,4.60
2023-03-26T00:54:12.942Z,5.00
2023-03-26T00:56:41.446Z,4.70
2023-03-26T00:59:09.992Z,5.60
2023-03-26T01:01:38.650Z,5.10
2023-03-26T01:04:31.817Z,5.30
2023-03-26T01:07:11.473Z,4.80
2023-03-26T01:09:43.079Z,5.10
2023-03-26T01:12:17.223Z,4.70
2023-03-26T01:14:47.901Z,4.50
2023-03-26T01:17:18.004Z,5.00
2023-03-26T01:20:15.265Z,4.60
2023-03-26T01:22:49.754Z,5.40
2023-03-26T01:25:19.089Z,4.60
2023-03-26T01:27:52.171Z,3.40
2023-03-26T01:30:35.399Z,4.20
2023-03-26T01:33:03.853Z,3.90
2023-03-26T01:35:35.393Z,3.30
2023-03-26T01:38:23.376Z,4.50
2023-03-26T01:41:11.000Z,4.10
2023-03-26T01:44:00.883Z,3.60
2023-03-26T01:46:36.409Z,4.40
2023-03-26T01:49:06.353Z,5.40
2023-03-26T01:51:35.876Z,3.80
2023-03-26T01:54:08.903Z,4.50
2023-03-26T01:57:01.628Z,4.20
2023-03-26T02:00:12.271Z,3.60
2023-03-26T02:03:18.005Z,2.70
2023-03-26T02:05:56.725Z,3.60
2023-03-26T02:08:59.523Z,3.30
2023-03-26T02:11:35.535Z,2.70
2023-03-26T02:14:07.074Z,2.20
2023-03-26T02:16:35.544Z,2.00
2023-03-26T02:19:04.573Z,2.50
2023-03-26T02:21:34.240Z,2.60
2023-03-26T02:24:03.454Z,2.50
2023-03-26T02:26:35.974Z,2.50
2023-03-26T02:29:19.524Z,2.20
2023-03-26T02:31:48.987Z,1.80
2023-03-26T02:34:17.538Z,1.70
2023-03-26T02:36:53.250Z,1.60
2023-03-26T02:39:22.180Z,1.60
2023-03-26T02:41:57.802Z,2.00
2023-03-26T02:44:27.514Z,1.40
2023-03-26T02:47:01.940Z,1.80
2023-03-26T02:49:49.053Z,2.10
2023-03-26T02:52:23.269Z,2.60
2023-03-26T02:54:52.160Z,2.60
2023-03-26T02:57:27.849Z,2.50
2023-03-26T03:00:15.648Z,2.00
2023-03-26T03:02:48.439Z,2.20
2023-03-26T03:05:43.411Z,3.20
2023-03-26T03:08:18.566Z,2.40
2023-03-26T03:11:11.929Z,2.80
2023-03-26T03:13:49.832Z,2.50
2023-03-26T03:16:27.590Z,3.10
2023-03-26T03:18:58.146Z,3.10
2023-03-26T03:21:34.327Z,3.20
2023-03-26T03:24:03.132Z,2.90
2023-03-26T03:26:36.719Z,3.30
2023-03-26T03:29:28.390Z,3.30
2023-03-26T03:31:57.337Z,4.40
2023-03-26T03:34:46.030Z,3.80
2023-03-26T03:37:14.332Z,3.40
2023-03-26T03:39:48.185Z,4.20
2023-03-26T03:42:19.222Z,3.10
2023-03-26T03:44:48.007Z,4.20
2023-03-26T03:47:48.866Z,4.50
2023-03-26T03:50:21.325Z,4.50
2023-03-26T03:53:01.280Z,4.40
2023-03-26T03:55:30.171Z,4.80
2023-03-26T03:57:58.548Z,4.90
2023-03-26T04:00:27.442Z,3.60
2023-03-26T04:03:09.221Z,4.50
2023-03-26T04:05:37.709Z,4.20
2023-03-26T04:08:06.539Z,4.90
2023-03-26T04:10:46.250Z,4.60
2023-03-26T04:13:15.955Z,4.10
2023-03-26T04:16:05.193Z,4.10
2023-03-26T04:18:33.614Z,5.70
2023-03-26T04:21:09.162Z,3.90
2023-03-26T04:23:37.324Z,4.10
2023-03-26T04:26:17.394Z,4.20
2023-03-26T04:29:12.920Z,5.40
2023-03-26T04:31:43.377Z,4.30
2023-03-26T04:34:26.372Z,4.60
2023-03-26T04:37:05.264Z,4.80
2023-03-26T04:39:36.514Z,5.10
2023-03-26T04:42:33.601Z,4.80
2023-03-26T04:45:17.695Z,6.00
2023-03-26T04:47:48.938Z,6.00
2023-03-26T04:50:17.552Z,6.40
2023-03-26T04:52:46.742Z,6.20
2023-03-26T04:56:01.830Z,6.10
2023-03-26T04:58:50.578Z,6.50
2023-03-26T05:01:20.137Z,6.40
2023-03-26T05:03:48.602Z,6.40
2023-03-26T05:06:18.008Z,7.10
2023-03-26T05:08:46.544Z,6.70
2023-03-26T05:11:22.506Z,7.30
2023-03-26T05:13:50.788Z,6.50
2023-03-26T05:16:22.033Z,6.10
2023-03-26T05:18:59.311Z,6.20
2023-03-26T05:21:30.825Z,6.30
2023-03-26T05:23:59.660Z,8.20
2023-03-26T05:26:29.295Z,7.00
2023-03-26T05:28:57.752Z,7.00
2023-03-26T05:31:31.352Z,7.00
2023-03-26T05:34:00.764Z,7.10
2023-03-26T05:36:29.450Z,7.80
2023-03-26T05:39:17.068Z,8.20
2023-03-26T05:42:04.184Z,9.30
2023-03-26T05:44:42.909Z,8.60
2023-03-26T05:47:18.456Z,9.00
2023-03-26T05:49:47.150Z,7.50
2023-03-26T05:52:19.125Z,5.90
2023-03-26T05:55:10.630Z,5.80
2023-03-26T05:57:58.160Z,6.30
2023-03-26T06:01:06.041Z,6.20
2023-03-26T06:03:47.365Z,6.90
2023-03-26T06:06:20.739Z,7.40
2023-03-26T06:09:02.345Z,7.50
2023-03-26T06:11:32.464Z,7.20
2023-03-26T06:14:02.374Z,9.20
2023-03-26T06:16:31.339Z,10.90
2023-03-26T06:19:28.921Z,11.70
2023-03-26T06:22:01.399Z,8.20
2023-03-26T06:24:39.501Z,7.40
2023-03-26T06:27:26.522Z,6.40
2023-03-26T06:30:15.592Z,6.30
2023-03-26T06:33:08.844Z,6.90
2023-03-26T06:35:45.618Z,7.10
2023-03-26T06:38:15.130Z,6.60
2023-03-26T06:40:44.018Z,5.40
2023-03-26T06:43:36.466Z,8.20
2023-03-26T06:46:23.711Z,11.50
2023-03-26T06:49:11.316Z,9.70
2023-03-26T06:51:52.086Z,6.60
2023-03-26T06:54:39.304Z,8.50
2023-03-26T06:57:28.781Z,6.50
2023-03-26T07:00:29.724Z,4.30
2023-03-26T07:03:17.453Z,3.30
2023-03-26T07:06:04.829Z,3.40
2023-03-26T07:08:51.704Z,3.30
2023-03-26T07:11:40.360Z,3.50
2023-03-26T07:14:44.163Z,5.10
2023-03-26T07:17:28.230Z,2.20
2023-03-26T07:20:08.885Z,2.40
2023-03-26T07:22:38.173Z,2.10
2023-03-26T07:25:30.105Z,2.40
2023-03-26T07:28:34.017Z,2.30
2023-03-26T07:31:37.652Z,1.80
2023-03-26T07:34:39.815Z,6.90
2023-03-26T07:37:44.105Z,108.10
2023-03-26T07:40:57.652Z,74.40
2023-03-26T07:44:08.321Z,16.60
2023-03-26T07:46:37.521Z,18.00
2023-03-26T07:49:24.714Z,4.00
2023-03-26T07:52:13.907Z,2.20
2023-03-26T07:54:56.953Z,5.40
2023-03-26T07:58:23.713Z,3.90
2023-03-26T08:01:52.297Z,2.10
2023-03-26T08:04:48.680Z,1.20
2023-03-26T08:07:58.761Z,1.10
2023-03-26T08:11:03.900Z,2.70
2023-03-26T08:13:45.185Z,1.10
2023-03-26T08:16:23.300Z,2.40
2023-03-26T08:19:03.654Z,2.60
2023-03-26T08:21:48.825Z,3.40
2023-03-26T08:24:39.182Z,2.70
2023-03-26T08:27:29.642Z,5.60
2023-03-26T08:30:08.543Z,3.70
2023-03-26T08:32:37.664Z,1.20
2023-03-26T08:35:06.738Z,1.90
2023-03-26T08:37:35.314Z,1.20
2023-03-26T08:40:03.895Z,0.50
2023-03-26T08:42:56.956Z,0.90
2023-03-26T08:45:53.913Z,0.40
2023-03-26T08:48:55.064Z,1.50
2023-03-26T08:51:41.878Z,0.30
2023-03-26T08:54:25.604Z,2.90
2023-03-26T08:57:15.930Z,0.40
2023-03-26T09:00:06.101Z,3.90
2023-03-26T09:02:53.249Z,0.40
2023-03-26T09:07:59.283Z,0.40
2023-03-26T09:10:46.831Z,0.30
2023-03-26T09:13:44.789Z,0.40
2023-03-26T09:16:28.288Z,0.70
2023-03-26T09:19:18.213Z,0.40
2023-03-26T09:22:06.663Z,0.40
2023-03-26T09:24:58.804Z,0.40
2023-03-26T09:28:10.598Z,0.70
2023-03-26T09:30:57.319Z,0.50
2023-03-26T09:33:28.626Z,0.50
2023-03-26T09:36:23.135Z,0.70
2023-03-26T09:39:00.503Z,0.40
2023-03-26T09:42:01.161Z,0.50
2023-03-26T09:44:36.096Z,0.80
2023-03-26T09:47:29.861Z,0.30
2023-03-26T09:50:10.657Z,0.50
2023-03-26T09:52:41.990Z,0.40
2023-03-26T09:55:44.895Z,1.20
2023-03-26T09:58:33.635Z,0.40
2023-03-26T10:01:16.395Z,0.40
2023-03-26T10:03:53.970Z,0.50
2023-03-26T10:06:41.580Z,0.40
2023-03-26T10:09:51.222Z,0.40
2023-03-26T10:12:20.205Z,0.30
2023-03-26T10:15:10.833Z,0.50
2023-03-26T10:18:02.498Z,0.70
2023-03-26T10:20:57.863Z,0.80
2023-03-26T10:23:45.380Z,0.70
2023-03-26T10:26:30.862Z,0.60
2023-03-26T10:29:15.832Z,0.70
2023-03-26T10:31:56.243Z,0.40
2023-03-26T10:35:06.547Z,0.70
2023-03-26T10:37:56.230Z,0.20
2023-03-26T10:40:35.778Z,0.50
2023-03-26T10:43:23.100Z,0.50
2023-03-26T10:46:10.799Z,1.10
2023-03-26T10:49:20.501Z,0.40
2023-03-26T10:51:57.314Z,0.80
2023-03-26T10:54:44.089Z,0.50
2023-03-26T10:57:43.983Z,0.30
2023-03-26T11:00:25.369Z,1.00
2023-03-26T11:03:18.424Z,1.10
2023-03-26T11:05:52.616Z,2.30
2023-03-26T11:08:44.167Z,1.40
2023-03-26T11:11:24.625Z,1.50
2023-03-26T11:14:35.169Z,1.90
2023-03-26T11:17:39.620Z,1.60
2023-03-26T11:20:13.831Z,1.40
2023-03-26T11:23:00.846Z,1.80
2023-03-26T11:25:38.238Z,1.90
2023-03-26T11:29:03.690Z,2.10
2023-03-26T11:31:58.556Z,1.60
2023-03-26T11:34:39.099Z,2.00
2023-03-26T11:37:16.212Z,1.10
2023-03-26T11:42:25.877Z,1.80
2023-03-26T11:45:05.933Z,1.50
2023-03-26T11:47:43.725Z,3.70
2023-03-26T11:50:27.258Z,1.50
2023-03-26T11:53:20.730Z,1.40
2023-03-26T11:55:54.015Z,1.70
2023-03-26T11:59:07.753Z,0.90
2023-03-26T12:01:58.188Z,1.20
2023-03-26T12:04:38.207Z,1.10
2023-03-26T12:07:33.418Z,1.50
2023-03-26T12:10:17.953Z,1.40
2023-03-26T12:12:48.912Z,0.90
2023-03-26T12:15:20.254Z,0.80
2023-03-26T12:17:58.115Z,1.00
2023-03-26T12:20:26.700Z,0.70
2023-03-26T12:22:59.661Z,0.70
2023-03-26T12:25:38.961Z,0.50
2023-03-26T12:28:13.929Z,0.50
2023-03-26T12:30:54.394Z,0.70
2023-03-26T12:33:28.087Z,0.70
2023-03-26T12:36:01.160Z,0.80
2023-03-26T12:38:37.455Z,1.00
2023-03-26T12:44:43.720Z,2.20
2023-03-26T12:44:56.579Z,1.40
2023-03-26T12:47:59.508Z,0.90
2023-03-26T12:50:34.258Z,1.10
2023-03-26T12:53:12.838Z,1.20
2023-03-26T12:56:06.910Z,0.70
2023-03-26T12:58:45.130Z,0.80
2023-03-26T13:01:16.867Z,0.80
2023-03-26T13:04:14.365Z,0.90
2023-03-26T13:07:01.646Z,1.00
2023-03-26T13:09:53.228Z,1.00
2023-03-26T13:12:35.712Z,0.80
2023-03-26T13:15:18.130Z,0.60
2023-03-26T13:17:56.152Z,0.50
2023-03-26T13:20:49.197Z,0.80
2023-03-26T13:23:27.903Z,0.60
2023-03-26T13:26:24.051Z,0.90
2023-03-26T13:28:55.685Z,0.50
2023-03-26T13:31:49.368Z,0.60
2023-03-26T13:34:23.270Z,0.60
2023-03-26T13:37:04.432Z,0.50
2023-03-26T13:40:10.716Z,1.40
2023-03-26T13:42:47.830Z,3.10
2023-03-26T13:48:25.828Z,1.20
2023-03-26T13:51:02.087Z,2.90
2023-03-26T13:53:43.889Z,4.70
2023-03-26T13:56:21.070Z,0.80
2023-03-26T13:59:34.711Z,0.90
2023-03-26T14:02:16.330Z,1.30
2023-03-26T14:04:51.089Z,0.90
2023-03-26T14:07:26.597Z,1.50
2023-03-26T14:10:08.680Z,1.10
2023-03-26T14:13:11.067Z,1.00
2023-03-26T14:15:59.156Z,1.10
2023-03-26T14:18:52.597Z,0.90
2023-03-26T14:21:29.434Z,1.30
2023-03-26T14:24:09.597Z,3.50
2023-03-26T14:27:08.997Z,0.40
2023-03-26T14:29:57.133Z,0.70
2023-03-26T14:33:04.402Z,5.30
2023-03-26T14:35:47.458Z,6.10
2023-03-26T14:38:21.871Z,2.70
2023-03-26T14:40:56.466Z,2.00
2023-03-26T14:43:27.742Z,1.60
2023-03-26T14:46:14.474Z,3.00
2023-03-26T14:49:05.969Z,2.80
2023-03-26T14:52:02.531Z,4.20
2023-03-26T14:54:37.253Z,4.60
2023-03-26T14:57:32.792Z,1.60
2023-03-26T15:00:39.219Z,5.50
2023-03-26T15:03:10.324Z,2.60
2023-03-26T15:05:38.770Z,4.70
2023-03-26T15:08:33.262Z,3.40
2023-03-26T15:11:14.165Z,2.40
2023-03-26T15:13:45.370Z,0.90
2023-03-26T15:16:41.591Z,1.90
2023-03-26T15:19:43.162Z,4.30
2023-03-26T15:22:38.772Z,1.40
2023-03-26T15:25:24.970Z,2.70
2023-03-26T15:28:12.396Z,1.90
2023-03-26T15:30:59.306Z,1.60
2023-03-26T15:33:48.893Z,2.40
2023-03-26T15:36:21.771Z,2.70
2023-03-26T15:38:59.776Z,2.70
2023-03-26T15:41:56.515Z,2.90
2023-03-26T15:44:43.752Z,1.80
2023-03-26T15:47:52.491Z,1.90
2023-03-26T15:50:39.587Z,2.50
2023-03-26T15:53:33.769Z,4.30
2023-03-26T15:56:15.166Z,4.20
2023-03-26T15:58:46.326Z,4.20
2023-03-26T16:01:46.463Z,9.90
2023-03-26T16:04:36.424Z,2.00
2023-03-26T16:07:11.443Z,19.10
2023-03-26T16:10:12.800Z,33.10
2023-03-26T16:12:54.094Z,50.00
2023-03-26T16:15:31.993Z,6.40
2023-03-26T16:18:22.511Z,4.50
2023-03-26T16:21:04.531Z,3.80
2023-03-26T16:23:55.477Z,12.90
2023-03-26T16:26:45.687Z,4.60
2023-03-26T16:29:18.408Z,3.50
2023-03-26T16:32:28.918Z,2.20
2023-03-26T16:35:05.390Z,5.00
2023-03-26T16:37:40.016Z,6.30
2023-03-26T16:40:23.680Z,4.20
2023-03-26T16:43:16.921Z,3.50
2023-03-26T16:46:17.376Z,2.40
2023-03-26T16:49:24.533Z,3.20
2023-03-26T16:52:20.669Z,3.90
2023-03-26T16:55:16.390Z,3.10
2023-03-26T16:57:53.372Z,3.10
2023-03-26T17:00:45.088Z,2.90
2023-03-26T17:03:32.185Z,2.40
2023-03-26T17:06:12.771Z,2.20
2023-03-26T17:08:59.296Z,3.20
2023-03-26T17:11:58.299Z,3.10
2023-03-26T17:15:06.215Z,3.80
2023-03-26T17:18:09.259Z,8.50
2023-03-26T17:20:59.867Z,3.20
2023-03-26T17:23:49.981Z,14.50
2023-03-26T17:26:39.841Z,17.20
2023-03-26T17:29:08.219Z,13.70
2023-03-26T17:31:58.927Z,31.00
2023-03-26T17:34:40.268Z,17.50
2023-03-26T17:37:35.742Z,23.70
2023-03-26T17:40:12.580Z,28.50
2023-03-26T17:43:01.870Z,48.30
2023-03-26T17:45:35.570Z,32.60
2023-03-26T17:48:10.923Z,14.80
2023-03-26T17:50:48.730Z,9.20
2023-03-26T17:53:37.138Z,10.50
2023-03-26T17:56:15.068Z,9.70
2023-03-26T17:58:48.657Z,12.40
2023-03-26T18:01:27.390Z,11.50
2023-03-26T18:04:00.191Z,8.60
2023-03-26T18:06:50.064Z,10.20
2023-03-26T18:09:49.567Z,17.80
2023-03-26T18:12:24.505Z,16.60
2023-03-26T18:15:11.419Z,65.00
2023-03-26T18:17:44.492Z,53.30
2023-03-26T18:20:25.227Z,17.20
2023-03-26T18:22:54.683Z,15.00
2023-03-26T18:25:32.279Z,13.40
2023-03-26T18:30:30.673Z,10.60
2023-03-26T18:33:05.410Z,3.80
2023-03-26T18:35:46.338Z,5.00
2023-03-26T18:38:36.438Z,11.00
2023-03-26T18:41:30.466Z,8.90
2023-03-26T18:44:04.864Z,13.30
2023-03-26T18:46:34.301Z,17.30
2023-03-26T18:49:03.255Z,14.40
2023-03-26T18:51:36.494Z,8.20
2023-03-26T18:54:21.616Z,14.40
2023-03-26T18:56:51.372Z,13.20
2023-03-26T18:59:32.226Z,17.90
2023-03-26T19:02:05.625Z,12.60
2023-03-26T19:04:35.212Z,19.70
2023-03-26T19:07:10.063Z,10.00
2023-03-26T19:09:39.070Z,5.10
2023-03-26T19:12:26.052Z,5.60
2023-03-26T19:15:08.021Z,5.30
2023-03-26T19:17:48.447Z,5.10
2023-03-26T19:20:22.731Z,4.90
2023-03-26T19:22:52.757Z,5.80
2023-03-26T19:25:39.040Z,5.00
2023-03-26T19:28:17.236Z,5.40
2023-03-26T19:30:46.157Z,4.30
2023-03-26T19:33:18.571Z,4.90
2023-03-26T19:36:01.900Z,4.60
2023-03-26T19:38:39.238Z,5.10
2023-03-26T19:41:20.764Z,4.80
2023-03-26T19:43:55.832Z,7.00
2023-03-26T19:46:26.677Z,6.80
2023-03-26T19:48:58.168Z,5.60
2023-03-26T19:51:37.382Z,5.20
2023-03-26T19:54:16.654Z,5.40
2023-03-26T19:56:44.831Z,5.40
2023-03-26T19:59:14.410Z,4.40
2023-03-26T20:01:42.688Z,4.90
2023-03-26T20:04:12.491Z,4.60
2023-03-26T20:06:44.217Z,4.70
2023-03-26T20:09:13.744Z,3.80
2023-03-26T20:11:42.559Z,4.20
2023-03-26T20:14:17.223Z,4.00
2023-03-26T20:16:46.168Z,3.50
2023-03-26T20:19:15.566Z,4.20
2023-03-26T20:21:45.009Z,3.90
2023-03-26T20:24:16.510Z,8.30
2023-03-26T20:26:46.664Z,5.80
2023-03-26T20:29:15.636Z,5.90
2023-03-26T20:31:44.460Z,4.10
2023-03-26T20:34:19.865Z,3.70
2023-03-26T20:36:54.455Z,4.80
2023-03-26T20:39:25.418Z,3.90
2023-03-26T20:41:55.061Z,6.00
2023-03-26T20:44:23.831Z,10.60
2023-03-26T20:46:52.635Z,24.50
2023-03-26T20:49:22.383Z,9.30
2023-03-26T20:51:51.013Z,7.30
2023-03-26T20:54:25.479Z,5.30
2023-03-26T20:56:54.875Z,5.10
2023-03-26T20:59:27.074Z,5.00
2023-03-26T21:01:58.099Z,5.40
2023-03-26T21:04:27.802Z,5.10
2023-03-26T21:07:07.270Z,6.20
2023-03-26T21:09:45.027Z,5.90
2023-03-26T21:12:30.474Z,5.10
2023-03-26T21:14:59.597Z,5.80
2023-03-26T21:17:28.574Z,5.70
2023-03-26T21:20:00.539Z,4.40
2023-03-26T21:22:34.027Z,4.60
2023-03-26T21:25:05.778Z,5.50
2023-03-26T21:27:52.383Z,5.20
2023-03-26T21:30:21.071Z,5.50
2023-03-26T21:32:49.948Z,5.90
2023-03-26T21:35:18.866Z,7.40
2023-03-26T21:37:50.804Z,6.00
2023-03-26T21:40:21.184Z,6.80
2023-03-26T21:42:52.275Z,7.40
2023-03-26T21:45:22.099Z,7.90
2023-03-26T21:47:50.945Z,7.70
2023-03-26T21:50:22.260Z,8.60
2023-03-26T21:52:51.868Z,8.40
2023-03-26T21:55:22.977Z,6.90
2023-03-26T21:58:04.220Z,7.20
2023-03-26T22:00:46.088Z,7.30
2023-03-26T22:03:59.312Z,10.00
2023-03-26T22:06:56.863Z,8.50
2023-03-26T22:09:33.931Z,10.80
2023-03-26T22:12:05.745Z,10.40
2023-03-26T22:14:34.610Z,11.10
2023-03-26T22:17:03.075Z,7.20
2023-03-26T22:19:31.724Z,6.30
2023-03-26T22:22:00.755Z,5.00
2023-03-26T22:24:29.137Z,6.50
2023-03-26T22:26:57.310Z,5.10
2023-03-26T22:29:25.796Z,6.40
2023-03-26T22:31:53.967Z,7.60
2023-03-26T22:34:23.784Z,6.60
2023-03-26T22:36:53.492Z,6.90
2023-03-26T22:39:21.971Z,6.30
2023-03-26T22:41:50.299Z,6.50
2023-03-26T22:44:20.476Z,7.30
2023-03-26T22:46:51.725Z,7.20
2023-03-26T22:49:21.904Z,8.30
2023-03-26T22:51:50.930Z,7.60
2023-03-26T22:54:19.417Z,8.80
2023-03-26T22:56:48.020Z,8.30
2023-03-26T22:59:16.478Z,9.20
2023-03-26T23:01:45.764Z,9.20
2023-03-26T23:04:31.658Z,8.70
2023-03-26T23:07:00.883Z,8.60
2023-03-26T23:09:29.757Z,9.60
2023-03-26T23:11:57.960Z,8.40
2023-03-26T23:14:26.524Z,9.10
2023-03-26T23:16:57.557Z,9.40
2023-03-26T23:19:25.918Z,8.90
2023-03-26T23:21:54.117Z,9.40
2023-03-26T23:24:22.393Z,9.80
2023-03-26T23:26:51.374Z,10.70
2023-03-26T23:29:20.105Z,9.60
2023-03-26T23:31:48.431Z,9.70
2023-03-26T23:34:17.247Z,8.80
2023-03-26T23:36:45.717Z,8.30
2023-03-26T23:39:14.106Z,10.50
2023-03-26T23:41:42.583Z,12.00
2023-03-26T23:44:14.641Z,10.80
2023-03-26T23:46:44.844Z,9.90
2023-03-26T23:49:13.860Z,11.80
2023-03-26T23:51:42.342Z,11.40
2023-03-26T23:54:11.844Z,13.10
2023-03-26T23:56:40.379Z,13.70
2023-03-26T23:59:08.916Z,12.90
